Soules Chapel, Texas
Current Conditions -  °F | °C
As of 11:15 AM on Sunday 21 Dec 2014 (Local Time) from KOSA Reporting Station
Overcast Overcast  
Wind Chill: 45°   Ceiling: 2200
Heat Index: 48°   Visibility: 10mi
Dew Point: 43°   Wind: 7mph
Humidity: 82%   Direction: 150°SSE
Pressure: 30.12"   Gusts: NA
Location:  32.7353°N, 94.9492°W
Report Text: KOSA 211715Z AUTO 15006KT 10SM OVC022 09/06 A3012 RMK AO1 T00910061
Loading
Personal Weather Stations






























Interactive Weather Map New forecast layout! Learn more

10-Day Weather Forecast

Advertisements
Track Severe Weather on mobile